Terminal Aerodrome Forecast
Issued by NWS

Home | Current Version | Previous Version | Graphics & Text | Print | Product List | Glossary Off
Versions: 1 2 3 4 5 6 7 8 9 10 11 12 13 14

000
FTUS43 KDDC 210536
TAFHYS
TAF
KHYS 210536Z 2106/2206 32009KT P6SM SCT250
     FM211500 01019G27KT P6SM BKN250
     FM212000 36015G24KT P6SM FEW250
     FM212300 01010KT P6SM FEW250=

USA.gov is the U.S. government's official web portal to all federal, state and local government web resources and services.